sensor_id;sensor_type;location;lat;lon;timestamp;pressure;altitude;pressure_sealevel;temperature;humidity
14885;BME280;7534;50.762;7.000;2023-10-08T00:02:25;87149.81;;;-143.16;62.42
14885;BME280;7534;50.762;7.000;2023-10-08T00:04:52;87161.94;;;-143.16;61.71
14885;BME280;7534;50.762;7.000;2023-10-08T00:07:18;87149.81;;;-143.16;61.16
14885;BME280;7534;50.762;7.000;2023-10-08T00:09:51;87125.59;;;-143.16;60.73
14885;BME280;7534;50.762;7.000;2023-10-08T00:12:17;87147.81;;;-143.16;60.70
14885;BME280;7534;50.762;7.000;2023-10-08T00:14:43;87103.41;;;-143.16;60.56
14885;BME280;7534;50.762;7.000;2023-10-08T00:17:12;87113.50;;;-143.16;60.25
14885;BME280;7534;50.762;7.000;2023-10-08T00:19:39;87172.03;;;-143.16;59.81
14885;BME280;7534;50.762;7.000;2023-10-08T00:22:06;87091.31;;;-143.16;59.17
14885;BME280;7534;50.762;7.000;2023-10-08T00:24:32;87143.78;;;-143.16;58.60
14885;BME280;7534;50.762;7.000;2023-10-08T00:26:59;87159.91;;;-143.16;57.68
14885;BME280;7534;50.762;7.000;2023-10-08T00:29:32;87107.44;;;-143.16;56.86
14885;BME280;7534;50.762;7.000;2023-10-08T00:31:58;87085.25;;;-143.16;56.66
14885;BME280;7534;50.762;7.000;2023-10-08T00:34:25;87050.94;;;-143.16;56.14
14885;BME280;7534;50.762;7.000;2023-10-08T00:36:52;87063.06;;;-143.16;55.61
14885;BME280;7534;50.762;7.000;2023-10-08T00:39:18;87077.19;;;-143.16;55.14
14885;BME280;7534;50.762;7.000;2023-10-08T00:41:53;87111.47;;;-143.16;54.81
14885;BME280;7534;50.762;7.000;2023-10-08T00:44:23;87121.56;;;-143.16;55.32
14885;BME280;7534;50.762;7.000;2023-10-08T00:46:56;87063.06;;;-143.16;55.33
14885;BME280;7534;50.762;7.000;2023-10-08T00:49:24;87099.38;;;-143.16;55.65
14885;BME280;7534;50.762;7.000;2023-10-08T00:51:57;87085.25;;;-143.16;55.24
14885;BME280;7534;50.762;7.000;2023-10-08T00:54:29;87099.38;;;-143.16;55.59
14885;BME280;7534;50.762;7.000;2023-10-08T00:56:59;87071.13;;;-143.16;55.71
14885;BME280;7534;50.762;7.000;2023-10-08T00:59:33;87165.97;;;-143.16;56.53
14885;BME280;7534;50.762;7.000;2023-10-08T01:02:04;87127.63;;;-143.16;57.25
14885;BME280;7534;50.762;7.000;2023-10-08T01:04:32;87153.88;;;-143.16;57.22
14885;BME280;7534;50.762;7.000;2023-10-08T01:07:02;87139.75;;;-143.16;57.09
14885;BME280;7534;50.762;7.000;2023-10-08T01:09:43;87135.69;;;-143.16;57.99
14885;BME280;7534;50.762;7.000;2023-10-08T01:12:15;87256.78;;;-143.16;58.69
14885;BME280;7534;50.762;7.000;2023-10-08T01:14:43;87190.19;;;-143.16;58.70
14885;BME280;7534;50.762;7.000;2023-10-08T01:17:13;87226.50;;;-143.16;59.05
14885;BME280;7534;50.762;7.000;2023-10-08T01:19:45;87256.78;;;-143.16;59.75
14885;BME280;7534;50.762;7.000;2023-10-08T01:22:22;87228.53;;;-143.16;59.71
14885;BME280;7534;50.762;7.000;2023-10-08T01:24:49;87250.72;;;-143.16;60.13
14885;BME280;7534;50.762;7.000;2023-10-08T01:27:19;87383.94;;;-143.16;60.65
14885;BME280;7534;50.762;7.000;2023-10-08T01:29:53;87287.06;;;-143.16;61.14
14885;BME280;7534;50.762;7.000;2023-10-08T01:32:22;87331.47;;;-143.16;61.60
14885;BME280;7534;50.762;7.000;2023-10-08T01:34:49;87307.25;;;-143.16;61.54
14885;BME280;7534;50.762;7.000;2023-10-08T01:37:16;87321.38;;;-143.16;61.77
14885;BME280;7534;50.762;7.000;2023-10-08T01:39:45;87343.56;;;-143.16;61.81
14885;BME280;7534;50.762;7.000;2023-10-08T01:42:12;87315.31;;;-143.16;62.21
14885;BME280;7534;50.762;7.000;2023-10-08T01:44:47;87367.78;;;-143.16;62.56
14885;BME280;7534;50.762;7.000;2023-10-08T01:47:15;87349.63;;;-143.16;62.98
14885;BME280;7534;50.762;7.000;2023-10-08T01:49:44;87408.16;;;-143.16;63.31
14885;BME280;7534;50.762;7.000;2023-10-08T01:52:14;87424.28;;;-143.16;63.81
14885;BME280;7534;50.762;7.000;2023-10-08T01:54:47;87412.19;;;-143.16;64.29
14885;BME280;7534;50.762;7.000;2023-10-08T01:57:14;87412.19;;;-143.16;64.90
14885;BME280;7534;50.762;7.000;2023-10-08T01:59:40;87486.84;;;-143.16;65.63
14885;BME280;7534;50.762;7.000;2023-10-08T02:02:06;87456.59;;;-143.16;65.92
14885;BME280;7534;50.762;7.000;2023-10-08T02:04:35;87470.72;;;-143.16;66.57
14885;BME280;7534;50.762;7.000;2023-10-08T02:07:04;87482.81;;;-143.16;66.89
14885;BME280;7534;50.762;7.000;2023-10-08T02:09:34;87519.16;;;-143.16;67.07
14885;BME280;7534;50.762;7.000;2023-10-08T02:12:00;87470.72;;;-143.16;67.34
14885;BME280;7534;50.762;7.000;2023-10-08T02:14:26;87498.97;;;-143.16;67.46
14885;BME280;7534;50.762;7.000;2023-10-08T02:16:55;87426.31;;;-143.16;67.59
14885;BME280;7534;50.762;7.000;2023-10-08T02:19:22;87523.19;;;-143.16;67.91
14885;BME280;7534;50.762;7.000;2023-10-08T02:21:56;87521.16;;;-143.16;68.72
14885;BME280;7534;50.762;7.000;2023-10-08T02:24:22;87549.44;;;-143.16;68.46
14885;BME280;7534;50.762;7.000;2023-10-08T02:26:52;87501.00;;;-143.16;68.04
14885;BME280;7534;50.762;7.000;2023-10-08T02:29:19;87503.00;;;-143.16;67.87
14885;BME280;7534;50.762;7.000;2023-10-08T02:31:44;87513.09;;;-143.16;67.86
14885;BME280;7534;50.762;7.000;2023-10-08T02:34:11;87543.38;;;-143.16;67.92
14885;BME280;7534;50.762;7.000;2023-10-08T02:36:40;87529.25;;;-143.16;67.71
14885;BME280;7534;50.762;7.000;2023-10-08T02:39:07;87535.28;;;-143.16;67.32
14885;BME280;7534;50.762;7.000;2023-10-08T02:41:42;87501.00;;;-143.16;66.07
14885;BME280;7534;50.762;7.000;2023-10-08T02:44:08;87480.81;;;-143.16;65.58
14885;BME280;7534;50.762;7.000;2023-10-08T02:46:43;87470.72;;;-143.16;64.38
14885;BME280;7534;50.762;7.000;2023-10-08T02:49:11;87436.41;;;-143.16;64.02
14885;BME280;7534;50.762;7.000;2023-10-08T02:51:40;87432.38;;;-143.16;63.45
14885;BME280;7534;50.762;7.000;2023-10-08T02:54:08;87482.81;;;-143.16;62.73
14885;BME280;7534;50.762;7.000;2023-10-08T02:56:43;87432.38;;;-143.16;61.83
14885;BME280;7534;50.762;7.000;2023-10-08T02:59:11;87549.44;;;-143.16;61.52
14885;BME280;7534;50.762;7.000;2023-10-08T03:01:39;87432.38;;;-143.16;61.47
14885;BME280;7534;50.762;7.000;2023-10-08T03:04:10;87418.25;;;-143.16;60.95
14885;BME280;7534;50.762;7.000;2023-10-08T03:06:49;87400.06;;;-143.16;60.78
14885;BME280;7534;50.762;7.000;2023-10-08T03:09:22;87363.75;;;-143.16;60.56
14885;BME280;7534;50.762;7.000;2023-10-08T03:11:56;87404.13;;;-143.16;61.34
14885;BME280;7534;50.762;7.000;2023-10-08T03:14:24;87371.81;;;-143.16;60.29
14885;BME280;7534;50.762;7.000;2023-10-08T03:16:54;87349.63;;;-143.16;59.91
14885;BME280;7534;50.762;7.000;2023-10-08T03:19:23;87303.22;;;-143.16;59.57
14885;BME280;7534;50.762;7.000;2023-10-08T03:21:50;87305.22;;;-143.16;59.58
14885;BME280;7534;50.762;7.000;2023-10-08T03:24:19;87327.41;;;-143.16;59.85
14885;BME280;7534;50.762;7.000;2023-10-08T03:27:11;87305.22;;;-143.16;59.78
14885;BME280;7534;50.762;7.000;2023-10-08T03:29:41;87365.75;;;-143.16;59.87
14885;BME280;7534;50.762;7.000;2023-10-08T03:32:11;87345.59;;;-143.16;60.02
14885;BME280;7534;50.762;7.000;2023-10-08T03:34:49;87329.44;;;-143.16;60.13
14885;BME280;7534;50.762;7.000;2023-10-08T03:37:18;87420.25;;;-143.16;60.31
14885;BME280;7534;50.762;7.000;2023-10-08T03:39:49;87331.47;;;-143.16;60.65
14885;BME280;7534;50.762;7.000;2023-10-08T03:42:26;87335.50;;;-143.16;60.74
14885;BME280;7534;50.762;7.000;2023-10-08T03:44:59;87321.38;;;-143.16;61.00
14885;BME280;7534;50.762;7.000;2023-10-08T03:47:36;87343.56;;;-143.16;61.18
14885;BME280;7534;50.762;7.000;2023-10-08T03:50:07;87335.50;;;-143.16;61.50
14885;BME280;7534;50.762;7.000;2023-10-08T03:52:36;87353.66;;;-143.16;61.71
14885;BME280;7534;50.762;7.000;2023-10-08T03:55:05;87398.06;;;-143.16;62.25
14885;BME280;7534;50.762;7.000;2023-10-08T03:57:52;87389.97;;;-143.16;62.30
14885;BME280;7534;50.762;7.000;2023-10-08T04:00:24;87404.13;;;-143.16;63.16
14885;BME280;7534;50.762;7.000;2023-10-08T04:02:58;87371.81;;;-143.16;63.21
14885;BME280;7534;50.762;7.000;2023-10-08T04:05:36;87373.84;;;-143.16;63.00
14885;BME280;7534;50.762;7.000;2023-10-08T04:08:20;87406.13;;;-143.16;63.29
14885;BME280;7534;50.762;7.000;2023-10-08T04:11:05;87426.31;;;-143.16;63.08
14885;BME280;7534;50.762;7.000;2023-10-08T04:13:36;87420.25;;;-143.16;62.79
14885;BME280;7534;50.762;7.000;2023-10-08T04:16:10;87472.72;;;-143.16;62.85
14885;BME280;7534;50.762;7.000;2023-10-08T04:18:35;87341.53;;;-143.16;62.42
14885;BME280;7534;50.762;7.000;2023-10-08T04:21:06;87347.59;;;-143.16;62.42
14885;BME280;7534;50.762;7.000;2023-10-08T04:23:40;87369.81;;;-143.16;62.19
14885;BME280;7534;50.762;7.000;2023-10-08T04:26:05;87420.25;;;-143.16;62.36
14885;BME280;7534;50.762;7.000;2023-10-08T04:28:32;87371.81;;;-143.16;62.30
14885;BME280;7534;50.762;7.000;2023-10-08T04:31:01;87400.06;;;-143.16;62.14
14885;BME280;7534;50.762;7.000;2023-10-08T04:33:44;87361.72;;;-143.16;62.11
14885;BME280;7534;50.762;7.000;2023-10-08T04:36:10;87392.00;;;-143.16;62.17
14885;BME280;7534;50.762;7.000;2023-10-08T04:38:43;87365.75;;;-143.16;62.61
14885;BME280;7534;50.762;7.000;2023-10-08T04:41:11;87359.72;;;-143.16;62.81
14885;BME280;7534;50.762;7.000;2023-10-08T04:43:37;87353.66;;;-143.16;63.08
14885;BME280;7534;50.762;7.000;2023-10-08T04:46:08;87410.16;;;-143.16;63.57
14885;BME280;7534;50.762;7.000;2023-10-08T04:48:48;87444.47;;;-143.16;63.95
14885;BME280;7534;50.762;7.000;2023-10-08T04:51:17;87414.19;;;-143.16;64.18
14885;BME280;7534;50.762;7.000;2023-10-08T04:53:45;87468.69;;;-143.16;64.02
14885;BME280;7534;50.762;7.000;2023-10-08T04:56:13;87446.50;;;-143.16;63.97
14885;BME280;7534;50.762;7.000;2023-10-08T04:58:40;87484.84;;;-143.16;63.88
14885;BME280;7534;50.762;7.000;2023-10-08T05:01:09;87466.69;;;-143.16;63.84
14885;BME280;7534;50.762;7.000;2023-10-08T05:03:54;87444.47;;;-143.16;63.80
14885;BME280;7534;50.762;7.000;2023-10-08T05:06:40;87438.41;;;-143.16;64.14
14885;BME280;7534;50.762;7.000;2023-10-08T05:09:16;87460.63;;;-143.16;64.19
14885;BME280;7534;50.762;7.000;2023-10-08T05:11:47;87450.53;;;-143.16;64.08
14885;BME280;7534;50.762;7.000;2023-10-08T05:14:31;87464.66;;;-143.16;64.14
14885;BME280;7534;50.762;7.000;2023-10-08T05:16:58;87466.69;;;-143.16;64.02
14885;BME280;7534;50.762;7.000;2023-10-08T05:19:32;87458.59;;;-143.16;63.81
14885;BME280;7534;50.762;7.000;2023-10-08T05:22:08;87456.59;;;-143.16;63.87
14885;BME280;7534;50.762;7.000;2023-10-08T05:24:47;87468.69;;;-143.16;63.73
14885;BME280;7534;50.762;7.000;2023-10-08T05:27:42;87434.38;;;-143.16;62.93
14885;BME280;7534;50.762;7.000;2023-10-08T05:30:26;87501.00;;;-143.16;63.04
14885;BME280;7534;50.762;7.000;2023-10-08T05:33:05;87488.88;;;-143.16;63.41
14885;BME280;7534;50.762;7.000;2023-10-08T05:35:36;87482.81;;;-143.16;63.23
14885;BME280;7534;50.762;7.000;2023-10-08T05:38:18;87539.34;;;-143.16;63.64
14885;BME280;7534;50.762;7.000;2023-10-08T05:41:00;87482.81;;;-143.16;63.60
14885;BME280;7534;50.762;7.000;2023-10-08T05:43:34;87474.75;;;-143.16;63.83
14885;BME280;7534;50.762;7.000;2023-10-08T05:46:10;87490.91;;;-143.16;63.46
14885;BME280;7534;50.762;7.000;2023-10-08T05:48:59;87454.56;;;-143.16;63.34
14885;BME280;7534;50.762;7.000;2023-10-08T05:51:36;87511.06;;;-143.16;62.92
14885;BME280;7534;50.762;7.000;2023-10-08T05:54:23;87434.38;;;-143.16;62.54
14885;BME280;7534;50.762;7.000;2023-10-08T05:57:05;87402.09;;;-143.16;61.91
14885;BME280;7534;50.762;7.000;2023-10-08T05:59:41;87398.06;;;-143.16;62.00
14885;BME280;7534;50.762;7.000;2023-10-08T06:02:19;87392.00;;;-143.16;61.63
14885;BME280;7534;50.762;7.000;2023-10-08T06:05:08;87412.19;;;-143.16;62.07
14885;BME280;7534;50.762;7.000;2023-10-08T06:07:48;87422.28;;;-143.16;62.32
14885;BME280;7534;50.762;7.000;2023-10-08T06:10:32;87412.19;;;-143.16;62.11
14885;BME280;7534;50.762;7.000;2023-10-08T06:13:09;87436.41;;;-143.16;62.22
14885;BME280;7534;50.762;7.000;2023-10-08T06:15:40;87466.69;;;-143.16;62.11
14885;BME280;7534;50.762;7.000;2023-10-08T06:18:24;87365.75;;;-143.16;62.40
14885;BME280;7534;50.762;7.000;2023-10-08T06:20:54;87392.00;;;-143.16;62.35
14885;BME280;7534;50.762;7.000;2023-10-08T06:23:21;87426.31;;;-143.16;62.07
14885;BME280;7534;50.762;7.000;2023-10-08T06:25:55;87476.75;;;-143.16;62.34
14885;BME280;7534;50.762;7.000;2023-10-08T06:28:31;87369.81;;;-143.16;61.88
14885;BME280;7534;50.762;7.000;2023-10-08T06:31:01;87396.03;;;-143.16;62.67
14885;BME280;7534;50.762;7.000;2023-10-08T06:33:29;87383.94;;;-143.16;62.00
14885;BME280;7534;50.762;7.000;2023-10-08T06:35:59;87377.88;;;-143.16;61.96
14885;BME280;7534;50.762;7.000;2023-10-08T06:38:32;87347.59;;;-143.16;61.69
14885;BME280;7534;50.762;7.000;2023-10-08T06:41:04;87305.22;;;-143.16;61.79
14885;BME280;7534;50.762;7.000;2023-10-08T06:43:35;87291.09;;;-143.16;61.86
14885;BME280;7534;50.762;7.000;2023-10-08T06:46:03;87337.50;;;-143.16;61.91
14885;BME280;7534;50.762;7.000;2023-10-08T06:48:32;87218.44;;;-143.16;61.86
14885;BME280;7534;50.762;7.000;2023-10-08T06:51:01;87272.94;;;-143.16;61.67
14885;BME280;7534;50.762;7.000;2023-10-08T06:53:44;87230.56;;;-143.16;61.58
14885;BME280;7534;50.762;7.000;2023-10-08T06:56:14;87190.19;;;-143.16;61.44
14885;BME280;7534;50.762;7.000;2023-10-08T06:58:42;87196.25;;;-143.16;61.12
14885;BME280;7534;50.762;7.000;2023-10-08T07:01:20;87208.34;;;-143.16;60.21
14885;BME280;7534;50.762;7.000;2023-10-08T07:03:51;87178.09;;;-143.16;59.80
14885;BME280;7534;50.762;7.000;2023-10-08T07:06:18;87168.00;;;-143.16;59.54
14885;BME280;7534;50.762;7.000;2023-10-08T07:08:58;87168.00;;;-143.16;59.73
14885;BME280;7534;50.762;7.000;2023-10-08T07:11:26;87143.78;;;-143.16;59.14
14885;BME280;7534;50.762;7.000;2023-10-08T07:13:56;87107.44;;;-143.16;58.43
14885;BME280;7534;50.762;7.000;2023-10-08T07:16:26;87127.63;;;-143.16;57.80
14885;BME280;7534;50.762;7.000;2023-10-08T07:19:09;87111.47;;;-143.16;56.80
14885;BME280;7534;50.762;7.000;2023-10-08T07:21:47;87093.31;;;-143.16;56.37
14885;BME280;7534;50.762;7.000;2023-10-08T07:24:14;87036.81;;;-143.16;55.46
14885;BME280;7534;50.762;7.000;2023-10-08T07:26:47;86931.88;;;-143.16;54.40
14885;BME280;7534;50.762;7.000;2023-10-08T07:29:16;86970.22;;;-143.16;53.38
14885;BME280;7534;50.762;7.000;2023-10-08T07:31:45;86881.44;;;-143.16;52.77
14885;BME280;7534;50.762;7.000;2023-10-08T07:34:18;86861.25;;;-143.16;51.47
14885;BME280;7534;50.762;7.000;2023-10-08T07:36:54;86867.31;;;-143.16;51.25
14885;BME280;7534;50.762;7.000;2023-10-08T07:39:22;86891.53;;;-143.16;51.04
14885;BME280;7534;50.762;7.000;2023-10-08T07:42:08;86879.41;;;-143.16;51.07
14885;BME280;7534;50.762;7.000;2023-10-08T07:44:34;86883.44;;;-143.16;51.21
14885;BME280;7534;50.762;7.000;2023-10-08T07:47:02;86845.13;;;-143.16;50.96
14885;BME280;7534;50.762;7.000;2023-10-08T07:49:31;86869.31;;;-143.16;50.68
14885;BME280;7534;50.762;7.000;2023-10-08T07:51:58;86778.53;;;-143.16;50.55
14885;BME280;7534;50.762;7.000;2023-10-08T07:54:26;86824.94;;;-143.16;49.99
14885;BME280;7534;50.762;7.000;2023-10-08T07:56:56;86841.06;;;-143.16;49.63
14885;BME280;7534;50.762;7.000;2023-10-08T07:59:25;86627.19;;;-143.16;48.77
14885;BME280;7534;50.762;7.000;2023-10-08T08:01:51;86334.63;;;-143.16;45.86
14885;BME280;7534;50.762;7.000;2023-10-08T08:04:20;86136.91;;;-143.16;41.97
14885;BME280;7534;50.762;7.000;2023-10-08T08:06:50;85917.00;;;-143.16;39.41
14885;BME280;7534;50.762;7.000;2023-10-08T08:09:20;85969.47;;;-143.16;38.92
14885;BME280;7534;50.762;7.000;2023-10-08T08:11:49;85945.25;;;-143.16;39.28
14885;BME280;7534;50.762;7.000;2023-10-08T08:14:16;86112.69;;;-143.16;39.46
14885;BME280;7534;50.762;7.000;2023-10-08T08:16:51;86094.53;;;-143.16;40.04
14885;BME280;7534;50.762;7.000;2023-10-08T08:19:17;86130.84;;;-143.16;40.57
14885;BME280;7534;50.762;7.000;2023-10-08T08:21:50;85985.59;;;-143.16;39.66
14885;BME280;7534;50.762;7.000;2023-10-08T08:24:19;85896.84;;;-143.16;38.49
14885;BME280;7534;50.762;7.000;2023-10-08T08:27:11;85729.41;;;-143.16;37.62
14885;BME280;7534;50.762;7.000;2023-10-08T08:29:50;85681.00;;;-143.16;36.85
14885;BME280;7534;50.762;7.000;2023-10-08T08:32:22;85630.56;;;-143.16;36.04
14885;BME280;7534;50.762;7.000;2023-10-08T08:34:49;85614.44;;;-143.16;35.98
14885;BME280;7534;50.762;7.000;2023-10-08T08:37:19;85707.22;;;-143.16;36.57
14885;BME280;7534;50.762;7.000;2023-10-08T08:39:48;85678.97;;;-143.16;36.57
14885;BME280;7534;50.762;7.000;2023-10-08T08:42:15;85725.38;;;-143.16;36.57
14885;BME280;7534;50.762;7.000;2023-10-08T08:44:45;85640.66;;;-143.16;36.14
14885;BME280;7534;50.762;7.000;2023-10-08T08:47:17;85664.84;;;-143.16;36.20
14885;BME280;7534;50.762;7.000;2023-10-08T08:49:47;85650.72;;;-143.16;36.06
14885;BME280;7534;50.762;7.000;2023-10-08T08:52:14;85674.94;;;-143.16;36.49
14885;BME280;7534;50.762;7.000;2023-10-08T08:54:42;85606.34;;;-143.16;36.26
14885;BME280;7534;50.762;7.000;2023-10-08T08:57:09;85568.03;;;-143.16;35.84
14885;BME280;7534;50.762;7.000;2023-10-08T08:59:53;85594.25;;;-143.16;35.70
14885;BME280;7534;50.762;7.000;2023-10-08T09:02:19;85543.81;;;-143.16;35.95
14885;BME280;7534;50.762;7.000;2023-10-08T09:04:48;85549.88;;;-143.16;35.62
14885;BME280;7534;50.762;7.000;2023-10-08T09:07:20;85638.63;;;-143.16;35.91
14885;BME280;7534;50.762;7.000;2023-10-08T09:09:47;85656.78;;;-143.16;36.49
14885;BME280;7534;50.762;7.000;2023-10-08T09:12:17;85681.00;;;-143.16;37.05
14885;BME280;7534;50.762;7.000;2023-10-08T09:14:43;85586.19;;;-143.16;36.36
14885;BME280;7534;50.762;7.000;2023-10-08T09:17:11;85507.53;;;-143.16;35.35
14885;BME280;7534;50.762;7.000;2023-10-08T09:19:40;85447.00;;;-143.16;34.85
14885;BME280;7534;50.762;7.000;2023-10-08T09:22:09;85380.44;;;-143.16;34.12
14885;BME280;7534;50.762;7.000;2023-10-08T09:24:39;85293.72;;;-143.16;33.71
14885;BME280;7534;50.762;7.000;2023-10-08T09:27:10;85428.84;;;-143.16;34.30
14885;BME280;7534;50.762;7.000;2023-10-08T09:29:45;85445.00;;;-143.16;34.40
14885;BME280;7534;50.762;7.000;2023-10-08T09:32:12;85551.91;;;-143.16;34.82
14885;BME280;7534;50.762;7.000;2023-10-08T09:34:49;85358.25;;;-143.16;35.02
14885;BME280;7534;50.762;7.000;2023-10-08T09:37:18;85319.94;;;-143.16;34.26
14885;BME280;7534;50.762;7.000;2023-10-08T09:39:49;85436.91;;;-143.16;34.73
14885;BME280;7534;50.762;7.000;2023-10-08T09:42:16;85511.56;;;-143.16;35.23
14885;BME280;7534;50.762;7.000;2023-10-08T09:44:47;85596.28;;;-143.16;35.73
14885;BME280;7534;50.762;7.000;2023-10-08T09:47:21;85424.81;;;-143.16;35.21
14885;BME280;7534;50.762;7.000;2023-10-08T09:50:03;85481.28;;;-143.16;35.39
14885;BME280;7534;50.762;7.000;2023-10-08T09:55:26;85636.63;;;-143.16;36.09
14885;BME280;7534;50.762;7.000;2023-10-08T09:57:53;85557.94;;;-143.16;36.09
14885;BME280;7534;50.762;7.000;2023-10-08T10:00:22;85507.53;;;-143.16;36.04
14885;BME280;7534;50.762;7.000;2023-10-08T10:03:02;85497.44;;;-143.16;35.45
14885;BME280;7534;50.762;7.000;2023-10-08T10:05:34;85630.56;;;-143.16;36.40
14885;BME280;7534;50.762;7.000;2023-10-08T10:08:05;85596.28;;;-143.16;36.83
14885;BME280;7534;50.762;7.000;2023-10-08T10:10:32;85747.56;;;-143.16;36.84
14885;BME280;7534;50.762;7.000;2023-10-08T10:13:05;85723.34;;;-143.16;37.33
14885;BME280;7534;50.762;7.000;2023-10-08T10:15:39;85697.13;;;-143.16;37.26
14885;BME280;7534;50.762;7.000;2023-10-08T10:18:16;85699.16;;;-143.16;37.98
14885;BME280;7534;50.762;7.000;2023-10-08T10:20:51;85840.34;;;-143.16;39.11
14885;BME280;7534;50.762;7.000;2023-10-08T10:23:44;85880.69;;;-143.16;40.04
14885;BME280;7534;50.762;7.000;2023-10-08T10:26:31;85919.03;;;-143.16;40.12
14885;BME280;7534;50.762;7.000;2023-10-08T10:31:41;85854.47;;;-143.16;41.21
14885;BME280;7534;50.762;7.000;2023-10-08T10:34:18;85951.31;;;-143.16;40.56
14885;BME280;7534;50.762;7.000;2023-10-08T10:36:48;85965.44;;;-143.16;40.82
14885;BME280;7534;50.762;7.000;2023-10-08T10:39:18;86005.78;;;-143.16;41.12
14885;BME280;7534;50.762;7.000;2023-10-08T10:41:59;85886.75;;;-143.16;41.44
14885;BME280;7534;50.762;7.000;2023-10-08T10:44:34;86027.97;;;-143.16;41.51
14885;BME280;7534;50.762;7.000;2023-10-08T10:47:03;85961.41;;;-143.16;41.44
14885;BME280;7534;50.762;7.000;2023-10-08T10:49:43;85953.31;;;-143.16;42.00
14885;BME280;7534;50.762;7.000;2023-10-08T10:52:22;85959.38;;;-143.16;42.68
14885;BME280;7534;50.762;7.000;2023-10-08T10:55:04;85915.00;;;-143.16;42.20
14885;BME280;7534;50.762;7.000;2023-10-08T10:57:41;85979.56;;;-143.16;42.07
14885;BME280;7534;50.762;7.000;2023-10-08T11:00:08;85917.00;;;-143.16;42.03
14885;BME280;7534;50.762;7.000;2023-10-08T11:02:53;85910.97;;;-143.16;41.81
14885;BME280;7534;50.762;7.000;2023-10-08T11:05:26;85939.19;;;-143.16;41.93
14885;BME280;7534;50.762;7.000;2023-10-08T11:07:58;86003.75;;;-143.16;42.53
14885;BME280;7534;50.762;7.000;2023-10-08T11:10:37;85997.72;;;-143.16;43.08
14885;BME280;7534;50.762;7.000;2023-10-08T11:13:15;85937.19;;;-143.16;42.51
14885;BME280;7534;50.762;7.000;2023-10-08T11:15:50;85898.84;;;-143.16;42.65
14885;BME280;7534;50.762;7.000;2023-10-08T11:18:27;86052.19;;;-143.16;44.00
14885;BME280;7534;50.762;7.000;2023-10-08T11:21:07;86054.19;;;-143.16;44.36
14885;BME280;7534;50.762;7.000;2023-10-08T11:23:48;86001.75;;;-143.16;43.30
14885;BME280;7534;50.762;7.000;2023-10-08T11:26:26;85991.66;;;-143.16;42.63
14885;BME280;7534;50.762;7.000;2023-10-08T11:29:02;86023.94;;;-143.16;43.02
14885;BME280;7534;50.762;7.000;2023-10-08T11:31:29;86086.47;;;-143.16;42.97
14885;BME280;7534;50.762;7.000;2023-10-08T11:34:04;85912.97;;;-143.16;43.01
14885;BME280;7534;50.762;7.000;2023-10-08T11:36:37;85939.19;;;-143.16;42.69
14885;BME280;7534;50.762;7.000;2023-10-08T11:39:18;85953.31;;;-143.16;42.73
14885;BME280;7534;50.762;7.000;2023-10-08T11:42:01;86025.94;;;-143.16;43.30
14885;BME280;7534;50.762;7.000;2023-10-08T11:44:42;85933.16;;;-143.16;42.86
14885;BME280;7534;50.762;7.000;2023-10-08T11:47:09;86058.22;;;-143.16;43.58
14885;BME280;7534;50.762;7.000;2023-10-08T11:49:40;85971.47;;;-143.16;43.24
14885;BME280;7534;50.762;7.000;2023-10-08T11:52:29;85973.50;;;-143.16;43.35
14885;BME280;7534;50.762;7.000;2023-10-08T11:54:56;85927.09;;;-143.16;42.81
14885;BME280;7534;50.762;7.000;2023-10-08T11:57:23;86017.88;;;-143.16;43.08
14885;BME280;7534;50.762;7.000;2023-10-08T11:59:51;85856.50;;;-143.16;42.73
14885;BME280;7534;50.762;7.000;2023-10-08T12:02:20;85824.22;;;-143.16;42.03
14885;BME280;7534;50.762;7.000;2023-10-08T12:04:46;85939.19;;;-143.16;42.04
14885;BME280;7534;50.762;7.000;2023-10-08T12:07:12;85771.78;;;-143.16;41.92
14885;BME280;7534;50.762;7.000;2023-10-08T12:09:43;85874.66;;;-143.16;41.61
14885;BME280;7534;50.762;7.000;2023-10-08T12:12:09;85765.72;;;-143.16;41.33
14885;BME280;7534;50.762;7.000;2023-10-08T12:14:38;85699.16;;;-143.16;40.47
14885;BME280;7534;50.762;7.000;2023-10-08T12:17:04;85648.72;;;-143.16;40.28
14885;BME280;7534;50.762;7.000;2023-10-08T12:19:37;85646.69;;;-143.16;40.53
14885;BME280;7534;50.762;7.000;2023-10-08T12:22:06;85535.75;;;-143.16;39.34
14885;BME280;7534;50.762;7.000;2023-10-08T12:24:34;85428.84;;;-143.16;38.58
14885;BME280;7534;50.762;7.000;2023-10-08T12:27:00;85440.94;;;-143.16;38.81
14885;BME280;7534;50.762;7.000;2023-10-08T12:29:28;85436.91;;;-143.16;39.08
14885;BME280;7534;50.762;7.000;2023-10-08T12:31:54;85457.09;;;-143.16;39.12
14885;BME280;7534;50.762;7.000;2023-10-08T12:34:20;85646.69;;;-143.16;39.79
14885;BME280;7534;50.762;7.000;2023-10-08T12:36:49;85735.47;;;-143.16;41.07
14885;BME280;7534;50.762;7.000;2023-10-08T12:39:16;85707.22;;;-143.16;41.24
14885;BME280;7534;50.762;7.000;2023-10-08T12:41:45;85745.53;;;-143.16;41.43
14885;BME280;7534;50.762;7.000;2023-10-08T12:44:11;85721.34;;;-143.16;41.02
14885;BME280;7534;50.762;7.000;2023-10-08T12:46:37;85806.06;;;-143.16;41.43
14885;BME280;7534;50.762;7.000;2023-10-08T12:49:04;85789.91;;;-143.16;42.74
14885;BME280;7534;50.762;7.000;2023-10-08T12:51:30;85769.75;;;-143.16;42.37
14885;BME280;7534;50.762;7.000;2023-10-08T12:54:00;85832.28;;;-143.16;42.38
14885;BME280;7534;50.762;7.000;2023-10-08T12:56:30;85854.47;;;-143.16;42.93
14885;BME280;7534;50.762;7.000;2023-10-08T12:59:11;85850.44;;;-143.16;43.25
14885;BME280;7534;50.762;7.000;2023-10-08T13:01:46;85890.78;;;-143.16;43.10
14885;BME280;7534;50.762;7.000;2023-10-08T13:04:19;85949.28;;;-143.16;43.76
14885;BME280;7534;50.762;7.000;2023-10-08T13:06:54;86038.06;;;-143.16;45.00
14885;BME280;7534;50.762;7.000;2023-10-08T13:09:23;86060.25;;;-143.16;46.18
14885;BME280;7534;50.762;7.000;2023-10-08T13:11:49;86151.03;;;-143.16;46.71
14885;BME280;7534;50.762;7.000;2023-10-08T13:14:16;86130.84;;;-143.16;46.60
14885;BME280;7534;50.762;7.000;2023-10-08T13:16:41;86179.28;;;-143.16;47.48
14885;BME280;7534;50.762;7.000;2023-10-08T13:19:10;86151.03;;;-143.16;47.89
14885;BME280;7534;50.762;7.000;2023-10-08T13:21:36;86191.38;;;-143.16;47.81